createdAt,value
2019-04-26T00:00:37.776Z,66.80
2019-04-26T00:01:37.760Z,66.90
2019-04-26T00:02:37.760Z,66.80
2019-04-26T00:03:37.753Z,67.34
2019-04-26T00:04:37.728Z,66.93
2019-04-26T00:05:38.130Z,67.44
2019-04-26T00:06:37.707Z,67.44
2019-04-26T00:07:37.709Z,67.34
2019-04-26T00:08:37.689Z,67.13
2019-04-26T00:09:37.675Z,67.65
2019-04-26T00:10:37.680Z,67.54
2019-04-26T00:11:37.716Z,67.65
2019-04-26T00:13:05.767Z,67.44
2019-04-26T00:13:37.654Z,67.54
2019-04-26T00:14:37.639Z,67.24
2019-04-26T00:15:37.625Z,67.30
2019-04-26T00:16:37.614Z,67.65
2019-04-26T00:17:37.601Z,67.54
2019-04-26T00:18:39.482Z,67.54
2019-04-26T00:19:37.580Z,67.13
2019-04-26T00:20:37.568Z,67.65
2019-04-26T00:21:37.571Z,67.44
2019-04-26T00:22:37.544Z,67.68
2019-04-26T00:23:37.551Z,67.78
2019-04-26T00:24:37.527Z,69.21
2019-04-26T00:25:37.526Z,68.29
2019-04-26T00:26:37.500Z,69.42
2019-04-26T00:27:37.497Z,68.05
2019-04-26T00:28:37.485Z,68.39
2019-04-26T00:29:37.485Z,68.26
2019-04-26T00:30:37.469Z,68.60
2019-04-26T00:31:37.480Z,69.21
2019-04-26T00:32:37.446Z,68.70
2019-04-26T00:33:37.463Z,68.70
2019-04-26T00:34:37.422Z,68.80
2019-04-26T00:35:47.338Z,69.11
2019-04-26T00:36:38.393Z,69.52
2019-04-26T00:37:37.385Z,68.70
2019-04-26T00:38:37.375Z,68.90
2019-04-26T00:39:37.361Z,69.18
2019-04-26T00:40:37.353Z,68.49
2019-04-26T00:41:37.341Z,68.57
2019-04-26T00:42:37.357Z,68.80
2019-04-26T00:43:37.322Z,68.90
2019-04-26T00:44:37.323Z,69.52
2019-04-26T00:45:37.295Z,69.24
2019-04-26T00:46:37.285Z,69.01
2019-04-26T00:47:37.290Z,69.65
2019-04-26T00:48:37.279Z,69.75
2019-04-26T00:49:43.391Z,68.73
2019-04-26T00:50:38.229Z,68.52
2019-04-26T00:51:37.241Z,69.04
2019-04-26T00:52:37.263Z,68.84
2019-04-26T00:53:37.210Z,68.84
2019-04-26T00:54:37.199Z,69.89
2019-04-26T00:55:37.192Z,69.24
2019-04-26T00:56:37.179Z,69.79
2019-04-26T00:57:37.162Z,70.09
2019-04-26T00:58:37.169Z,69.89
2019-04-26T00:59:37.153Z,69.99
2019-04-26T01:00:37.139Z,70.50
2019-04-26T01:01:37.124Z,70.71
2019-04-26T01:02:37.121Z,70.40
2019-04-26T01:03:37.110Z,69.89
2019-04-26T01:04:37.074Z,70.29
2019-04-26T01:05:37.065Z,69.89
2019-04-26T01:06:37.059Z,70.71
2019-04-26T01:07:37.046Z,70.09
2019-04-26T01:08:37.050Z,70.09
2019-04-26T01:09:37.022Z,70.50
2019-04-26T01:10:37.025Z,70.50
2019-04-26T01:11:37.001Z,70.29
2019-04-26T01:12:37.004Z,70.50
2019-04-26T01:13:36.999Z,70.40
2019-04-26T01:14:36.973Z,70.09
2019-04-26T01:15:36.960Z,70.40
2019-04-26T01:16:36.963Z,69.89
2019-04-26T01:17:36.943Z,70.64
2019-04-26T01:18:36.951Z,70.53
2019-04-26T01:19:36.924Z,70.53
2019-04-26T01:20:36.905Z,70.03
2019-04-26T01:21:36.895Z,70.74
2019-04-26T01:22:36.900Z,70.64
2019-04-26T01:23:36.885Z,70.74
2019-04-26T01:24:36.869Z,70.64
2019-04-26T01:25:36.850Z,70.74
2019-04-26T01:26:36.855Z,70.64
2019-04-26T01:27:36.839Z,70.74
2019-04-26T01:28:36.834Z,70.71
2019-04-26T01:29:36.833Z,70.12
2019-04-26T01:30:36.802Z,70.33
2019-04-26T01:31:36.799Z,70.09
2019-04-26T01:32:36.776Z,70.53
2019-04-26T01:33:36.777Z,69.89
2019-04-26T01:36:12.372Z,70.12
2019-04-26T01:36:48.463Z,70.33
2019-04-26T01:37:47.453Z,70.43
2019-04-26T01:38:47.464Z,70.74
2019-04-26T01:39:47.428Z,70.12
2019-04-26T01:40:47.410Z,70.23
2019-04-26T01:41:47.398Z,70.03
2019-04-26T01:42:47.388Z,70.12
2019-04-26T01:43:47.392Z,70.53
2019-04-26T01:44:47.376Z,70.12
2019-04-26T01:45:47.356Z,70.74
2019-04-26T01:46:47.346Z,70.64
2019-04-26T01:47:47.343Z,70.43
2019-04-26T01:48:47.338Z,70.33
2019-04-26T01:49:47.311Z,70.12
2019-04-26T01:50:47.300Z,70.33
2019-04-26T01:51:47.299Z,69.92
2019-04-26T01:52:47.280Z,70.33
2019-04-26T01:53:47.287Z,70.03
2019-04-26T01:54:47.274Z,70.12
2019-04-26T01:55:47.256Z,69.92
2019-04-26T01:56:47.244Z,70.23
2019-04-26T01:57:47.228Z,70.03
2019-04-26T01:58:47.216Z,70.33
2019-04-26T01:59:47.223Z,69.92
2019-04-26T02:00:47.199Z,70.23
2019-04-26T02:01:47.183Z,70.26
2019-04-26T02:02:47.176Z,69.92
2019-04-26T02:03:47.168Z,69.92
2019-04-26T02:04:47.158Z,70.74
2019-04-26T02:05:47.154Z,70.53
2019-04-26T02:06:47.130Z,70.23
2019-04-26T02:07:47.131Z,70.53
2019-04-26T02:08:47.122Z,70.33
2019-04-26T02:09:47.113Z,70.33
2019-04-26T02:10:47.088Z,69.71
2019-04-26T02:11:47.098Z,70.33
2019-04-26T02:12:47.089Z,70.33
2019-04-26T02:13:47.075Z,69.92
2019-04-26T02:14:47.073Z,70.23
2019-04-26T02:15:47.075Z,70.12
2019-04-26T02:16:47.042Z,70.09
2019-04-26T02:17:47.040Z,70.09
2019-04-26T02:18:47.021Z,69.89
2019-04-26T02:19:47.032Z,69.89
2019-04-26T02:20:47.000Z,69.99
2019-04-26T02:21:46.997Z,69.79
2019-04-26T02:22:46.977Z,69.79
2019-04-26T02:23:46.971Z,69.79
2019-04-26T02:24:46.980Z,69.48
2019-04-26T02:25:46.949Z,69.79
2019-04-26T02:26:46.964Z,69.48
2019-04-26T02:27:46.936Z,69.48
2019-04-26T02:28:46.937Z,69.48
2019-04-26T02:29:46.933Z,69.68
2019-04-26T02:30:46.894Z,69.58
2019-04-26T02:31:46.902Z,70.09
2019-04-26T02:32:46.878Z,70.29
2019-04-26T02:33:46.872Z,70.09
2019-04-26T02:34:46.888Z,70.09
2019-04-26T02:35:46.847Z,70.61
2019-04-26T02:36:57.956Z,70.71
2019-04-26T02:37:47.863Z,70.64
2019-04-26T02:38:46.817Z,71.04
2019-04-26T02:39:46.823Z,71.04
2019-04-26T02:40:46.791Z,71.56
2019-04-26T02:41:46.785Z,71.56
2019-04-26T02:42:46.773Z,71.36
2019-04-26T02:43:46.775Z,71.56
2019-04-26T02:44:46.773Z,72.07
2019-04-26T02:45:46.734Z,71.86
2019-04-26T02:46:46.736Z,71.77
2019-04-26T02:47:46.731Z,72.07
2019-04-26T02:48:46.730Z,72.31
2019-04-26T02:49:46.704Z,72.20
2019-04-26T02:50:46.703Z,72.31
2019-04-26T02:51:46.673Z,72.52
2019-04-26T02:52:46.690Z,72.20
2019-04-26T02:53:46.652Z,72.38
2019-04-26T02:54:46.646Z,72.31
2019-04-26T02:55:46.645Z,72.20
2019-04-26T02:56:46.638Z,72.31
2019-04-26T02:57:46.669Z,72.11
2019-04-26T02:58:46.611Z,71.97
2019-04-26T02:59:46.589Z,71.97
2019-04-26T03:00:46.618Z,71.86
2019-04-26T03:01:46.576Z,72.07
2019-04-26T03:02:46.567Z,72.20
2019-04-26T03:03:46.560Z,71.97
2019-04-26T03:04:46.548Z,72.07
2019-04-26T03:05:46.550Z,71.97
2019-04-26T03:07:02.481Z,72.07
2019-04-26T03:07:47.522Z,71.86
2019-04-26T03:08:46.500Z,72.17
2019-04-26T03:09:46.502Z,72.28
2019-04-26T03:10:46.494Z,71.97
2019-04-26T03:11:46.505Z,71.97
2019-04-26T03:12:46.487Z,72.28
2019-04-26T03:13:46.464Z,72.28
2019-04-26T03:14:46.444Z,72.17
2019-04-26T03:15:46.464Z,72.52
2019-04-26T03:16:46.415Z,72.52
2019-04-26T03:17:46.403Z,72.41
2019-04-26T03:18:46.389Z,72.69
2019-04-26T03:19:46.377Z,72.48
2019-04-26T03:20:46.401Z,72.72
2019-04-26T03:21:46.368Z,72.58
2019-04-26T03:22:46.360Z,72.28
2019-04-26T03:23:58.180Z,72.69
2019-04-26T03:24:48.739Z,72.92
2019-04-26T03:25:46.328Z,72.82
2019-04-26T03:26:46.306Z,72.72
2019-04-26T03:27:46.321Z,72.69
2019-04-26T03:28:46.294Z,72.69
2019-04-26T03:29:46.279Z,72.99
2019-04-26T03:30:52.296Z,72.69
2019-04-26T03:31:53.370Z,72.78
2019-04-26T03:32:50.977Z,72.78
2019-04-26T03:33:53.573Z,72.99
2019-04-26T03:34:53.966Z,72.99
2019-04-26T03:35:56.591Z,72.78
2019-04-26T03:36:47.212Z,72.99
2019-04-26T03:37:46.191Z,72.69
2019-04-26T03:38:46.171Z,72.69
2019-04-26T03:39:46.179Z,72.48
2019-04-26T03:40:46.173Z,72.69
2019-04-26T03:41:46.162Z,72.69
2019-04-26T03:42:46.125Z,72.69
2019-04-26T03:43:46.138Z,72.69
2019-04-26T03:44:46.106Z,72.69
2019-04-26T03:45:46.129Z,72.82
2019-04-26T03:46:46.109Z,72.99
2019-04-26T03:47:46.068Z,72.78
2019-04-26T03:48:46.063Z,72.69
2019-04-26T03:49:46.053Z,73.30
2019-04-26T03:50:46.037Z,73.10
2019-04-26T03:51:46.067Z,73.61
2019-04-26T03:52:46.017Z,73.54
2019-04-26T03:53:46.019Z,73.40
2019-04-26T03:54:45.993Z,73.61
2019-04-26T03:55:45.999Z,73.40
2019-04-26T03:56:46.004Z,73.10
2019-04-26T03:57:46.217Z,73.71
2019-04-26T03:58:45.983Z,73.20
2019-04-26T03:59:46.049Z,73.30
2019-04-26T04:00:47.125Z,73.61
2019-04-26T04:01:46.314Z,73.50
2019-04-26T04:02:46.895Z,73.50
2019-04-26T04:03:47.319Z,73.74
2019-04-26T04:04:46.733Z,73.40
2019-04-26T04:05:47.678Z,73.61
2019-04-26T04:07:02.643Z,73.61
2019-04-26T04:07:51.278Z,73.20
2019-04-26T04:08:46.720Z,73.10
2019-04-26T04:09:46.795Z,72.99
2019-04-26T04:10:47.547Z,73.20
2019-04-26T04:11:47.370Z,73.20
2019-04-26T04:12:47.650Z,72.69
2019-04-26T04:13:50.523Z,72.99
2019-04-26T04:14:48.675Z,72.96
2019-04-26T04:15:46.709Z,73.40
2019-04-26T04:16:47.348Z,73.30
2019-04-26T04:17:47.780Z,73.30
2019-04-26T04:18:45.759Z,73.71
2019-04-26T04:19:45.776Z,73.40
2019-04-26T04:20:46.216Z,73.71
2019-04-26T04:21:46.925Z,73.71
2019-04-26T04:22:47.299Z,73.81
2019-04-26T04:23:47.188Z,74.11
2019-04-26T04:24:46.859Z,74.22
2019-04-26T04:25:47.229Z,74.02
2019-04-26T04:26:46.794Z,73.91
2019-04-26T04:27:47.261Z,73.81
2019-04-26T04:28:46.510Z,73.81
2019-04-26T04:29:52.355Z,74.26
2019-04-26T04:30:47.725Z,74.02
2019-04-26T04:31:46.437Z,73.91
2019-04-26T04:32:47.305Z,73.81
2019-04-26T04:33:47.353Z,74.02
2019-04-26T04:34:47.549Z,74.02
2019-04-26T04:35:47.029Z,74.11
2019-04-26T04:36:46.906Z,74.19
2019-04-26T04:38:05.893Z,73.81
2019-04-26T04:38:48.301Z,74.08
2019-04-26T04:39:46.385Z,73.88
2019-04-26T04:40:47.103Z,73.47
2019-04-26T04:41:46.950Z,73.98
2019-04-26T04:42:45.905Z,74.08
2019-04-26T04:43:48.739Z,73.88
2019-04-26T04:44:45.968Z,73.78
2019-04-26T04:45:46.306Z,73.98
2019-04-26T04:46:47.449Z,74.19
2019-04-26T04:47:48.018Z,74.19
2019-04-26T04:48:47.061Z,74.35
2019-04-26T04:49:46.993Z,74.29
2019-04-26T04:50:46.914Z,74.19
2019-04-26T04:51:46.830Z,74.29
2019-04-26T04:52:46.480Z,74.39
2019-04-26T04:53:46.505Z,74.19
2019-04-26T04:55:00.804Z,73.88
2019-04-26T04:55:47.815Z,74.49
2019-04-26T04:56:45.731Z,74.29
2019-04-26T04:57:45.922Z,74.19
2019-04-26T04:58:46.367Z,73.68
2019-04-26T04:59:46.129Z,73.74
2019-04-26T05:00:45.297Z,73.85
2019-04-26T05:01:46.190Z,73.64
2019-04-26T05:02:46.541Z,73.57
2019-04-26T05:03:45.295Z,74.26
2019-04-26T05:04:45.364Z,73.78
2019-04-26T05:05:45.273Z,74.08
2019-04-26T05:06:45.236Z,73.64
2019-04-26T05:07:45.285Z,73.78
2019-04-26T05:08:45.545Z,73.64
2019-04-26T05:09:45.340Z,73.57
2019-04-26T05:10:45.568Z,73.64
2019-04-26T05:11:45.823Z,73.23
2019-04-26T05:12:45.806Z,73.44
2019-04-26T05:13:46.265Z,73.13
2019-04-26T05:14:46.171Z,73.33
2019-04-26T05:15:46.338Z,73.23
2019-04-26T05:16:46.466Z,73.23
2019-04-26T05:17:46.073Z,73.23
2019-04-26T05:18:45.669Z,73.23
2019-04-26T05:19:45.862Z,73.03
2019-04-26T05:20:45.943Z,73.03
2019-04-26T05:21:45.408Z,72.82
2019-04-26T05:22:46.322Z,73.23
2019-04-26T05:23:46.115Z,73.33
2019-04-26T05:24:45.731Z,73.23
2019-04-26T05:25:45.204Z,73.23
2019-04-26T05:26:46.073Z,73.33
2019-04-26T05:27:46.751Z,73.23
2019-04-26T05:28:46.199Z,74.15
2019-04-26T05:29:46.493Z,73.03
2019-04-26T05:30:46.499Z,73.33
2019-04-26T05:31:47.043Z,73.23
2019-04-26T05:32:44.960Z,73.23
2019-04-26T05:33:46.138Z,73.23
2019-04-26T05:34:44.936Z,73.33
2019-04-26T05:35:44.947Z,73.64
2019-04-26T05:36:44.921Z,73.33
2019-04-26T05:37:44.903Z,73.33
2019-04-26T05:38:44.897Z,73.54
2019-04-26T05:39:44.904Z,73.44
2019-04-26T05:40:44.872Z,73.20
2019-04-26T05:41:44.862Z,73.13
2019-04-26T05:42:44.889Z,73.23
2019-04-26T05:43:44.851Z,73.54
2019-04-26T05:44:44.852Z,73.44
2019-04-26T05:45:44.822Z,74.26
2019-04-26T05:46:44.810Z,74.15
2019-04-26T05:47:44.811Z,74.76
2019-04-26T05:48:44.803Z,73.94
2019-04-26T05:49:44.816Z,74.15
2019-04-26T05:50:44.768Z,74.35
2019-04-26T05:51:44.756Z,73.85
2019-04-26T05:52:44.742Z,73.64
2019-04-26T05:53:44.761Z,74.05
2019-04-26T05:54:44.724Z,73.74
2019-04-26T05:55:44.710Z,74.56
2019-04-26T05:56:44.714Z,73.94
2019-04-26T05:57:44.698Z,74.15
2019-04-26T05:58:44.707Z,73.94
2019-04-26T05:59:44.666Z,73.64
2019-04-26T06:00:44.660Z,73.74
2019-04-26T06:01:44.653Z,73.74
2019-04-26T06:02:44.632Z,73.54
2019-04-26T06:03:44.657Z,73.85
2019-04-26T06:04:44.623Z,74.29
2019-04-26T06:05:44.599Z,74.26
2019-04-26T06:06:44.607Z,74.05
2019-04-26T06:07:44.638Z,74.19
2019-04-26T06:08:44.569Z,74.76
2019-04-26T06:09:44.609Z,74.56
2019-04-26T06:10:44.553Z,73.94
2019-04-26T06:11:44.537Z,74.35
2019-04-26T06:12:44.526Z,74.35
2019-04-26T06:13:44.528Z,74.87
2019-04-26T06:14:44.531Z,74.90
2019-04-26T06:15:44.501Z,75.93
2019-04-26T06:16:44.504Z,76.13
2019-04-26T06:17:44.472Z,75.99
2019-04-26T06:18:44.474Z,76.13
2019-04-26T06:19:44.471Z,76.34
2019-04-26T06:20:44.460Z,75.72
2019-04-26T06:21:44.430Z,76.09
2019-04-26T06:22:44.417Z,76.30
2019-04-26T06:23:44.406Z,76.30
2019-04-26T06:24:44.406Z,76.03
2019-04-26T06:25:44.402Z,76.20
2019-04-26T06:26:44.372Z,76.84
2019-04-26T06:27:44.370Z,76.23
2019-04-26T06:28:44.353Z,76.34
2019-04-26T06:29:44.352Z,76.23
2019-04-26T06:30:45.669Z,76.23
2019-04-26T06:31:44.326Z,76.23
2019-04-26T06:32:56.165Z,76.03
2019-04-26T06:33:45.322Z,76.34
2019-04-26T06:34:44.297Z,76.54
2019-04-26T06:35:44.293Z,76.64
2019-04-26T06:36:44.266Z,76.37
2019-04-26T06:37:44.265Z,76.78
2019-04-26T06:38:44.331Z,77.19
2019-04-26T06:39:44.261Z,77.29
2019-04-26T06:40:44.226Z,77.50
2019-04-26T06:41:44.238Z,77.15
2019-04-26T06:42:44.219Z,77.15
2019-04-26T06:43:44.213Z,77.29
2019-04-26T06:44:44.195Z,77.05
2019-04-26T06:45:44.171Z,77.15
2019-04-26T06:46:44.159Z,77.26
2019-04-26T06:47:44.157Z,77.67
2019-04-26T06:48:44.140Z,78.49
2019-04-26T06:49:44.148Z,78.59
2019-04-26T06:50:44.114Z,77.91
2019-04-26T06:51:44.114Z,78.11
2019-04-26T06:52:44.104Z,78.21
2019-04-26T06:53:44.118Z,78.42
2019-04-26T06:54:44.092Z,78.31
2019-04-26T06:55:44.097Z,78.21
2019-04-26T06:56:44.064Z,78.49
2019-04-26T06:57:44.080Z,78.42
2019-04-26T06:58:44.034Z,78.11
2019-04-26T06:59:44.064Z,78.52
2019-04-26T07:00:44.017Z,78.17
2019-04-26T07:01:44.077Z,78.28
2019-04-26T07:02:43.992Z,78.38
2019-04-26T07:03:43.987Z,78.79
2019-04-26T07:04:43.985Z,79.00
2019-04-26T07:05:43.952Z,78.59
2019-04-26T07:06:43.947Z,78.59
2019-04-26T07:07:43.943Z,79.30
2019-04-26T07:08:56.418Z,79.30
2019-04-26T07:09:44.968Z,79.85
2019-04-26T07:10:43.982Z,79.85
2019-04-26T07:11:43.913Z,80.16
2019-04-26T07:12:43.876Z,80.26
2019-04-26T07:13:43.867Z,80.88
2019-04-26T07:14:43.889Z,81.38
2019-04-26T07:15:43.848Z,81.70
2019-04-26T07:16:43.919Z,82.00
2019-04-26T07:17:43.833Z,82.21
2019-04-26T07:18:43.811Z,82.71
2019-04-26T07:19:43.801Z,82.65
2019-04-26T07:20:43.801Z,82.76
2019-04-26T07:21:43.780Z,83.17
2019-04-26T07:22:43.778Z,83.17
2019-04-26T07:23:43.766Z,84.91
2019-04-26T07:24:43.814Z,85.63
2019-04-26T07:25:43.757Z,85.31
2019-04-26T07:26:43.725Z,84.60
2019-04-26T07:27:43.715Z,85.01
2019-04-26T07:28:43.711Z,86.96
2019-04-26T07:29:43.712Z,85.93
2019-04-26T07:30:43.703Z,85.22
2019-04-26T07:31:43.677Z,85.31
2019-04-26T07:32:43.659Z,85.01
2019-04-26T07:33:43.652Z,83.98
2019-04-26T07:34:43.653Z,83.58
2019-04-26T07:35:43.658Z,84.29
2019-04-26T07:36:43.626Z,84.09
2019-04-26T07:37:43.617Z,84.91
2019-04-26T07:38:43.598Z,85.01
2019-04-26T07:39:43.600Z,84.70
2019-04-26T07:40:43.601Z,84.19
2019-04-26T07:41:43.563Z,84.70
2019-04-26T07:42:43.579Z,83.37
2019-04-26T07:43:43.566Z,84.87
2019-04-26T07:44:43.553Z,84.39
2019-04-26T07:45:43.533Z,85.22
2019-04-26T07:46:43.514Z,84.87
2019-04-26T07:47:43.516Z,83.33
2019-04-26T07:48:43.502Z,84.87
2019-04-26T07:49:43.502Z,85.17
2019-04-26T07:50:43.487Z,84.97
2019-04-26T07:51:43.470Z,84.97
2019-04-26T07:52:44.084Z,85.17
2019-04-26T07:53:43.436Z,84.77
2019-04-26T07:54:43.432Z,83.64
2019-04-26T07:55:43.430Z,82.41
2019-04-26T07:56:43.405Z,83.44
2019-04-26T07:57:44.015Z,83.13
2019-04-26T07:58:43.381Z,84.15
2019-04-26T07:59:43.369Z,85.28
2019-04-26T08:00:44.913Z,83.64
2019-04-26T08:01:43.353Z,84.15
2019-04-26T08:02:43.341Z,84.77
2019-04-26T08:03:43.334Z,85.03
2019-04-26T08:04:43.323Z,84.11
2019-04-26T08:05:43.350Z,84.93
2019-04-26T08:06:43.298Z,83.50
2019-04-26T08:07:43.284Z,81.76
2019-04-26T08:08:43.284Z,81.45
2019-04-26T08:09:46.012Z,82.17
2019-04-26T08:10:43.273Z,83.09
2019-04-26T08:11:43.247Z,83.70
2019-04-26T08:12:43.228Z,83.60
2019-04-26T08:13:43.274Z,83.50
2019-04-26T08:14:43.214Z,82.48
2019-04-26T08:15:43.268Z,83.39
2019-04-26T08:16:43.194Z,83.19
2019-04-26T08:17:43.182Z,82.48
2019-04-26T08:18:43.168Z,82.48
2019-04-26T08:19:43.162Z,83.50
2019-04-26T08:20:43.147Z,83.50
2019-04-26T08:21:47.864Z,84.01
2019-04-26T08:22:44.122Z,84.79
2019-04-26T08:23:43.261Z,83.09
2019-04-26T08:24:43.102Z,83.39
2019-04-26T08:25:43.105Z,84.07
2019-04-26T08:26:43.102Z,82.34
2019-04-26T08:27:43.069Z,82.34
2019-04-26T08:28:43.060Z,82.43
2019-04-26T08:29:43.046Z,82.13
2019-04-26T08:30:44.758Z,82.03
2019-04-26T08:31:43.047Z,82.13
2019-04-26T08:32:43.013Z,82.23
2019-04-26T08:33:48.571Z,83.05
2019-04-26T08:34:44.245Z,83.66
2019-04-26T08:35:44.337Z,82.95
2019-04-26T08:36:44.097Z,81.10
2019-04-26T08:37:43.057Z,83.66
2019-04-26T08:38:43.093Z,82.27
2019-04-26T08:39:45.079Z,81.86
2019-04-26T08:40:42.930Z,82.23
2019-04-26T08:41:42.927Z,82.34
2019-04-26T08:42:42.908Z,83.09
2019-04-26T08:43:42.910Z,82.98
2019-04-26T08:44:42.896Z,82.23
2019-04-26T08:45:44.137Z,82.43
2019-04-26T08:46:43.880Z,82.20
2019-04-26T08:47:46.069Z,83.15
2019-04-26T08:48:43.840Z,83.32
2019-04-26T08:49:42.876Z,82.60
2019-04-26T08:50:45.864Z,82.09
2019-04-26T08:51:42.849Z,81.13
2019-04-26T08:52:42.815Z,80.93
2019-04-26T08:53:42.796Z,81.65
2019-04-26T08:54:42.777Z,80.62
2019-04-26T08:55:42.774Z,80.97
2019-04-26T08:56:42.766Z,81.07
2019-04-26T08:57:42.802Z,80.97
2019-04-26T08:58:42.919Z,80.05
2019-04-26T08:59:42.730Z,80.15
2019-04-26T09:00:42.722Z,80.87
2019-04-26T09:01:45.537Z,80.97
2019-04-26T09:02:42.695Z,80.76
2019-04-26T09:03:42.703Z,80.97
2019-04-26T09:04:42.674Z,80.97
2019-04-26T09:05:45.573Z,81.07
2019-04-26T09:06:43.660Z,83.42
2019-04-26T09:07:42.647Z,82.29
2019-04-26T09:08:43.555Z,83.01
2019-04-26T09:09:42.627Z,83.11
2019-04-26T09:10:43.316Z,82.50
2019-04-26T09:11:42.608Z,83.01
2019-04-26T09:12:42.623Z,83.62
2019-04-26T09:13:42.594Z,84.95
2019-04-26T09:14:42.571Z,85.16
2019-04-26T09:15:42.561Z,84.34
2019-04-26T09:16:50.202Z,84.95
2019-04-26T09:17:43.534Z,82.50
2019-04-26T09:18:44.089Z,82.03
2019-04-26T09:19:43.514Z,83.15
2019-04-26T09:20:42.960Z,84.85
2019-04-26T09:21:42.501Z,83.22
2019-04-26T09:22:42.484Z,82.91
2019-04-26T09:23:44.349Z,81.51
2019-04-26T09:24:45.449Z,80.25
2019-04-26T09:25:42.450Z,80.87
2019-04-26T09:26:46.633Z,83.11
2019-04-26T09:27:43.421Z,80.97
2019-04-26T09:28:42.419Z,80.15
2019-04-26T09:29:42.402Z,80.97
2019-04-26T09:30:44.863Z,80.87
2019-04-26T09:31:43.409Z,80.76
2019-04-26T09:32:42.381Z,82.09
2019-04-26T09:33:42.371Z,82.09
2019-04-26T09:34:42.804Z,82.97
2019-04-26T09:35:42.343Z,79.80
2019-04-26T09:36:42.331Z,81.24
2019-04-26T09:37:42.327Z,80.93
2019-04-26T09:38:42.339Z,80.93
2019-04-26T09:39:43.456Z,80.93
2019-04-26T09:40:42.285Z,81.44
2019-04-26T09:41:42.275Z,81.24
2019-04-26T09:42:42.282Z,80.42
2019-04-26T09:43:42.258Z,79.70
2019-04-26T09:44:43.005Z,79.91
2019-04-26T09:45:42.254Z,79.39
2019-04-26T09:46:44.332Z,80.62
2019-04-26T09:47:42.220Z,79.70
2019-04-26T09:48:42.199Z,80.42
2019-04-26T09:49:42.308Z,80.83
2019-04-26T09:50:42.198Z,80.01
2019-04-26T09:51:42.248Z,81.95
2019-04-26T09:52:42.166Z,82.26
2019-04-26T09:53:43.328Z,82.05
2019-04-26T09:54:42.147Z,80.99
2019-04-26T09:55:42.127Z,81.51
2019-04-26T09:56:42.109Z,80.99
2019-04-26T09:57:42.116Z,80.89
2019-04-26T09:58:42.091Z,80.99
2019-04-26T09:59:42.085Z,79.46
2019-04-26T10:00:44.019Z,80.89
2019-04-26T10:01:43.055Z,81.51
2019-04-26T10:02:42.057Z,80.89
2019-04-26T10:03:42.087Z,80.07
2019-04-26T10:04:42.032Z,79.97
2019-04-26T10:05:42.036Z,79.25
2019-04-26T10:06:42.018Z,81.30
2019-04-26T10:07:42.011Z,80.07
2019-04-26T10:08:43.405Z,79.97
2019-04-26T10:09:41.986Z,80.38
2019-04-26T10:10:41.972Z,81.71
2019-04-26T10:11:43.504Z,81.20
2019-04-26T10:12:41.974Z,81.30
2019-04-26T10:13:41.931Z,81.20
2019-04-26T10:14:41.914Z,79.77
2019-04-26T10:15:41.908Z,79.05
2019-04-26T10:16:42.400Z,79.77
2019-04-26T10:17:41.900Z,79.46
2019-04-26T10:18:41.883Z,80.28
2019-04-26T10:19:41.866Z,79.50
2019-04-26T10:20:41.854Z,79.66
2019-04-26T10:21:41.844Z,80.07
2019-04-26T10:22:41.841Z,79.16
2019-04-26T10:23:41.829Z,79.12
2019-04-26T10:24:41.818Z,80.24
2019-04-26T10:25:41.799Z,78.91
2019-04-26T10:26:41.815Z,78.81
2019-04-26T10:27:42.563Z,79.22
2019-04-26T10:28:41.785Z,79.22
2019-04-26T10:29:41.757Z,78.30
2019-04-26T10:30:42.397Z,77.86
2019-04-26T10:31:41.735Z,77.25
2019-04-26T10:32:41.771Z,78.30
2019-04-26T10:33:41.719Z,76.84
2019-04-26T10:34:42.805Z,76.22
2019-04-26T10:35:42.691Z,77.14
2019-04-26T10:36:41.690Z,76.84
2019-04-26T10:37:43.923Z,78.20
2019-04-26T10:38:42.659Z,77.34
2019-04-26T10:39:41.650Z,77.69
2019-04-26T10:40:41.645Z,77.96
2019-04-26T10:41:41.629Z,77.25
2019-04-26T10:42:41.640Z,78.27
2019-04-26T10:43:41.620Z,78.81
2019-04-26T10:44:41.601Z,78.71
2019-04-26T10:45:41.595Z,78.20
2019-04-26T10:46:41.576Z,78.88
2019-04-26T10:47:41.596Z,80.00
2019-04-26T10:48:41.555Z,78.47
2019-04-26T10:49:41.562Z,78.67
2019-04-26T10:50:41.550Z,78.67
2019-04-26T10:51:41.880Z,78.57
2019-04-26T10:52:41.510Z,78.57
2019-04-26T10:53:41.513Z,77.31
2019-04-26T10:54:44.552Z,78.37
2019-04-26T10:55:41.482Z,79.18
2019-04-26T10:56:41.492Z,77.11
2019-04-26T10:57:41.484Z,78.94
2019-04-26T10:58:41.483Z,78.53
2019-04-26T10:59:44.223Z,78.64
2019-04-26T11:00:41.432Z,78.23
2019-04-26T11:01:41.422Z,77.62
2019-04-26T11:02:41.410Z,77.82
2019-04-26T11:03:41.420Z,75.98
2019-04-26T11:04:42.875Z,76.19
2019-04-26T11:05:41.378Z,75.16
2019-04-26T11:06:41.361Z,76.02
2019-04-26T11:07:41.356Z,76.63
2019-04-26T11:08:41.370Z,78.57
2019-04-26T11:09:41.330Z,78.47
2019-04-26T11:10:48.603Z,77.96
2019-04-26T11:11:42.307Z,78.67
2019-04-26T11:12:43.337Z,78.16
2019-04-26T11:13:41.299Z,78.57
2019-04-26T11:14:41.277Z,79.43
2019-04-26T11:15:41.266Z,78.71
2019-04-26T11:16:42.257Z,78.57
2019-04-26T11:17:41.247Z,78.27
2019-04-26T11:18:41.260Z,76.84
2019-04-26T11:19:44.039Z,76.46
2019-04-26T11:20:45.342Z,77.28
2019-04-26T11:21:41.225Z,78.37
2019-04-26T11:22:41.224Z,77.38
2019-04-26T11:23:45.009Z,78.09
2019-04-26T11:24:41.171Z,78.16
2019-04-26T11:25:41.165Z,77.96
2019-04-26T11:26:41.182Z,78.37
2019-04-26T11:27:44.287Z,78.16
2019-04-26T11:28:42.166Z,77.86
2019-04-26T11:29:53.096Z,77.31
2019-04-26T11:30:42.113Z,76.70
2019-04-26T11:31:41.099Z,76.70
2019-04-26T11:32:41.111Z,76.90
2019-04-26T11:33:44.857Z,77.21
2019-04-26T11:34:42.865Z,77.17
2019-04-26T11:35:41.055Z,77.89
2019-04-26T11:36:41.804Z,75.95
2019-04-26T11:37:41.107Z,75.95
2019-04-26T11:38:41.053Z,76.05
2019-04-26T11:39:42.139Z,76.01
2019-04-26T11:40:44.462Z,76.05
2019-04-26T11:41:41.998Z,74.58
2019-04-26T11:42:41.886Z,74.79
2019-04-26T11:43:40.979Z,74.58
2019-04-26T11:44:40.958Z,75.10
2019-04-26T11:45:40.960Z,76.73
2019-04-26T11:46:45.023Z,76.12
2019-04-26T11:47:54.319Z,74.99
2019-04-26T11:48:41.927Z,75.30
2019-04-26T11:49:41.586Z,74.99
2019-04-26T11:50:40.902Z,76.12
2019-04-26T11:51:40.898Z,75.34
2019-04-26T11:52:40.877Z,76.25
2019-04-26T11:53:44.702Z,76.87
2019-04-26T11:54:40.857Z,76.87
2019-04-26T11:55:40.845Z,77.07
2019-04-26T11:56:40.839Z,77.17
2019-04-26T11:57:43.648Z,78.97
2019-04-26T11:58:41.841Z,78.56
2019-04-26T11:59:40.806Z,78.63
2019-04-26T12:00:40.801Z,76.28
2019-04-26T12:01:42.007Z,74.35
2019-04-26T12:02:40.766Z,75.88
2019-04-26T12:03:40.760Z,76.59
2019-04-26T12:04:40.758Z,78.12
2019-04-26T12:05:40.734Z,73.84
2019-04-26T12:06:40.727Z,72.82
2019-04-26T12:07:40.713Z,74.76
2019-04-26T12:08:40.715Z,72.92
2019-04-26T12:09:40.696Z,73.02
2019-04-26T12:10:44.369Z,73.74
2019-04-26T12:11:49.467Z,74.25
2019-04-26T12:12:43.112Z,74.76
2019-04-26T12:13:40.649Z,73.74
2019-04-26T12:14:40.659Z,74.86
2019-04-26T12:15:43.795Z,74.35
2019-04-26T12:16:48.068Z,74.35
2019-04-26T12:17:41.608Z,73.88
2019-04-26T12:18:44.156Z,73.26
2019-04-26T12:19:40.602Z,74.35
2019-04-26T12:20:40.576Z,74.86
2019-04-26T12:21:40.562Z,74.96
2019-04-26T12:22:43.357Z,75.27
2019-04-26T12:23:40.550Z,75.95
2019-04-26T12:24:40.546Z,75.64
2019-04-26T12:25:43.559Z,74.82
2019-04-26T12:26:43.038Z,74.01
2019-04-26T12:27:40.613Z,74.93
2019-04-26T12:28:41.357Z,75.95
2019-04-26T12:29:40.500Z,75.91
2019-04-26T12:30:40.468Z,75.57
2019-04-26T12:31:40.465Z,73.19
2019-04-26T12:32:40.452Z,74.82
2019-04-26T12:33:43.778Z,72.78
2019-04-26T12:34:40.443Z,72.48
2019-04-26T12:35:40.432Z,73.60
2019-04-26T12:36:40.407Z,71.47
2019-04-26T12:37:40.398Z,71.87
2019-04-26T12:38:40.387Z,71.26
2019-04-26T12:39:40.409Z,72.28
2019-04-26T12:40:42.232Z,72.38
2019-04-26T12:41:41.359Z,75.02
2019-04-26T12:42:43.324Z,73.13
2019-04-26T12:43:41.335Z,70.96
2019-04-26T12:44:41.203Z,71.44
2019-04-26T12:45:40.309Z,68.59
2019-04-26T12:46:40.315Z,69.10
2019-04-26T12:47:40.297Z,68.46
2019-04-26T12:48:40.277Z,66.64
2019-04-26T12:49:40.285Z,64.25
2019-04-26T12:50:40.286Z,64.39
2019-04-26T12:51:42.770Z,62.16
2019-04-26T12:52:41.233Z,64.04
2019-04-26T12:53:40.790Z,64.61